createdAt,value
2022-12-28T00:01:45.357Z,100.00
2022-12-28T00:04:14.360Z,100.00
2022-12-28T00:06:41.284Z,100.00
2022-12-28T00:09:10.846Z,100.00
2022-12-28T00:11:38.078Z,100.00
2022-12-28T00:14:05.183Z,100.00
2022-12-28T00:16:35.447Z,100.00
2022-12-28T00:19:05.715Z,100.00
2022-12-28T00:21:32.978Z,100.00
2022-12-28T00:24:00.892Z,100.00
2022-12-28T00:26:31.200Z,100.00
2022-12-28T00:29:04.032Z,100.00
2022-12-28T00:31:31.660Z,100.00
2022-12-28T00:33:58.489Z,100.00
2022-12-28T00:37:11.034Z,100.00
2022-12-28T00:39:12.759Z,100.00
2022-12-28T00:41:39.618Z,100.00
2022-12-28T00:44:08.597Z,100.00
2022-12-28T00:46:35.713Z,100.00
2022-12-28T00:49:02.782Z,100.00
2022-12-28T00:51:29.530Z,100.00
2022-12-28T00:53:56.443Z,100.00
2022-12-28T00:56:23.741Z,100.00
2022-12-28T00:58:55.299Z,100.00
2022-12-28T01:01:23.735Z,100.00
2022-12-28T01:03:51.101Z,100.00
2022-12-28T01:06:20.049Z,100.00
2022-12-28T01:08:47.618Z,100.00
2022-12-28T01:11:23.695Z,100.00
2022-12-28T01:13:52.748Z,100.00
2022-12-28T01:16:21.435Z,100.00
2022-12-28T01:18:51.152Z,100.00
2022-12-28T01:21:23.997Z,100.00
2022-12-28T01:23:54.494Z,100.00
2022-12-28T01:26:21.657Z,100.00
2022-12-28T01:28:48.530Z,100.00
2022-12-28T01:31:17.628Z,100.00
2022-12-28T01:33:45.113Z,100.00
2022-12-28T01:36:15.533Z,100.00
2022-12-28T01:38:43.677Z,100.00
2022-12-28T01:41:12.824Z,100.00
2022-12-28T01:43:55.013Z,100.00
2022-12-28T01:46:35.370Z,100.00
2022-12-28T01:49:11.246Z,100.00
2022-12-28T01:51:50.277Z,100.00
2022-12-28T01:54:18.652Z,100.00
2022-12-28T01:56:48.220Z,100.00
2022-12-28T01:59:20.183Z,100.00
2022-12-28T02:01:47.227Z,100.00
2022-12-28T02:04:14.173Z,100.00
2022-12-28T02:06:40.982Z,100.00
2022-12-28T02:09:14.511Z,100.00
2022-12-28T02:11:41.657Z,100.00
2022-12-28T02:14:09.606Z,100.00
2022-12-28T02:16:37.447Z,100.00
2022-12-28T02:19:06.250Z,100.00
2022-12-28T02:22:01.570Z,100.00
2022-12-28T02:25:13.027Z,100.00
2022-12-28T02:28:04.251Z,100.00
2022-12-28T02:30:35.339Z,100.00
2022-12-28T02:33:12.273Z,100.00
2022-12-28T02:35:54.105Z,100.00
2022-12-28T02:38:28.169Z,100.00
2022-12-28T02:41:04.662Z,100.00
2022-12-28T02:43:34.144Z,100.00
2022-12-28T02:46:38.158Z,100.00
2022-12-28T02:49:40.379Z,100.00
2022-12-28T02:52:44.267Z,100.00
2022-12-28T02:55:55.321Z,100.00
2022-12-28T02:58:43.576Z,100.00
2022-12-28T03:01:25.223Z,100.00
2022-12-28T03:04:24.807Z,100.00
2022-12-28T03:07:27.093Z,100.00
2022-12-28T03:10:15.819Z,100.00
2022-12-28T03:12:53.706Z,100.00
2022-12-28T03:15:30.015Z,100.00
2022-12-28T03:18:23.682Z,100.00
2022-12-28T03:21:11.214Z,100.00
2022-12-28T03:23:59.157Z,100.00
2022-12-28T03:26:46.795Z,100.00
2022-12-28T03:29:37.182Z,100.00
2022-12-28T03:32:04.949Z,100.00
2022-12-28T03:34:33.251Z,100.00
2022-12-28T03:37:34.257Z,100.00
2022-12-28T03:40:18.390Z,100.00
2022-12-28T03:43:09.255Z,100.00
2022-12-28T03:45:57.670Z,100.00
2022-12-28T03:48:25.486Z,100.00
2022-12-28T03:50:54.018Z,100.00
2022-12-28T03:53:26.377Z,100.00
2022-12-28T03:56:31.382Z,100.00
2022-12-28T03:59:01.017Z,100.00
2022-12-28T04:01:36.554Z,100.00
2022-12-28T04:04:03.458Z,100.00
2022-12-28T04:06:30.143Z,100.00
2022-12-28T04:08:57.389Z,100.00
2022-12-28T04:11:27.127Z,100.00
2022-12-28T04:13:54.841Z,100.00
2022-12-28T04:16:22.318Z,100.00
2022-12-28T04:18:49.236Z,100.00
2022-12-28T04:21:16.722Z,100.00
2022-12-28T04:23:45.063Z,100.00
2022-12-28T04:26:18.246Z,100.00
2022-12-28T04:28:46.853Z,100.00
2022-12-28T04:31:20.719Z,100.00
2022-12-28T04:33:58.377Z,100.00
2022-12-28T04:36:25.880Z,100.00
2022-12-28T04:38:52.794Z,100.00
2022-12-28T04:41:19.772Z,100.00
2022-12-28T04:43:46.631Z,100.00
2022-12-28T04:46:15.796Z,100.00
2022-12-28T04:48:43.324Z,100.00
2022-12-28T04:51:17.002Z,100.00
2022-12-28T04:53:44.529Z,100.00
2022-12-28T04:56:12.540Z,100.00
2022-12-28T04:58:39.808Z,100.00
2022-12-28T05:01:10.032Z,100.00
2022-12-28T05:03:38.912Z,100.00
2022-12-28T05:06:08.458Z,100.00
2022-12-28T05:08:36.505Z,100.00
2022-12-28T05:11:05.620Z,100.00
2022-12-28T05:13:33.224Z,100.00
2022-12-28T05:16:09.253Z,100.00
2022-12-28T05:18:36.974Z,100.00
2022-12-28T05:21:05.342Z,100.00
2022-12-28T05:23:33.499Z,100.00
2022-12-28T05:26:00.528Z,100.00
2022-12-28T05:28:27.754Z,100.00
2022-12-28T05:30:59.881Z,100.00
2022-12-28T05:33:28.112Z,100.00
2022-12-28T05:35:54.869Z,100.00
2022-12-28T05:38:21.745Z,100.00
2022-12-28T05:40:48.645Z,100.00
2022-12-28T05:43:15.413Z,100.00
2022-12-28T05:45:42.174Z,100.00
2022-12-28T05:48:08.930Z,100.00
2022-12-28T05:50:35.863Z,100.00
2022-12-28T05:53:02.709Z,100.00
2022-12-28T05:55:29.528Z,100.00
2022-12-28T05:57:56.449Z,100.00
2022-12-28T06:00:23.292Z,100.00
2022-12-28T06:02:50.138Z,100.00
2022-12-28T06:05:17.193Z,100.00
2022-12-28T06:07:43.976Z,100.00
2022-12-28T06:10:10.817Z,100.00
2022-12-28T06:12:37.560Z,100.00
2022-12-28T06:15:04.569Z,100.00
2022-12-28T06:17:31.285Z,100.00
2022-12-28T06:19:58.092Z,100.00
2022-12-28T06:22:24.847Z,100.00
2022-12-28T06:24:51.669Z,100.00
2022-12-28T06:27:18.484Z,100.00
2022-12-28T06:29:45.183Z,100.00
2022-12-28T06:32:11.970Z,100.00
2022-12-28T06:34:38.683Z,100.00
2022-12-28T06:37:05.458Z,100.00
2022-12-28T06:39:32.263Z,100.00
2022-12-28T06:41:59.037Z,100.00
2022-12-28T06:44:25.790Z,100.00
2022-12-28T06:46:52.604Z,100.00
2022-12-28T06:49:19.359Z,100.00
2022-12-28T06:51:46.068Z,100.00
2022-12-28T06:54:12.785Z,100.00
2022-12-28T06:56:39.791Z,100.00
2022-12-28T06:59:07.490Z,100.00
2022-12-28T07:01:37.598Z,100.00
2022-12-28T07:04:06.885Z,100.00
2022-12-28T07:06:40.433Z,100.00
2022-12-28T07:09:10.731Z,100.00
2022-12-28T07:11:37.603Z,100.00
2022-12-28T07:14:04.741Z,100.00
2022-12-28T07:18:59.125Z,100.00
2022-12-28T07:21:31.376Z,100.00
2022-12-28T07:23:58.389Z,100.00
2022-12-28T07:26:30.561Z,100.00
2022-12-28T07:29:00.099Z,100.00
2022-12-28T07:31:34.704Z,100.00
2022-12-28T07:34:04.016Z,100.00
2022-12-28T07:36:32.203Z,100.00
2022-12-28T07:38:59.988Z,100.00
2022-12-28T07:41:29.585Z,100.00
2022-12-28T07:43:58.372Z,100.00
2022-12-28T07:46:30.387Z,100.00
2022-12-28T07:48:57.784Z,100.00
2022-12-28T07:51:30.382Z,100.00
2022-12-28T07:53:59.141Z,100.00
2022-12-28T07:56:27.699Z,100.00
2022-12-28T07:58:57.362Z,100.00
2022-12-28T08:01:27.039Z,100.00
2022-12-28T08:04:00.204Z,100.00
2022-12-28T08:06:28.607Z,100.00
2022-12-28T08:08:58.911Z,100.00
2022-12-28T08:11:28.950Z,100.00
2022-12-28T08:13:56.827Z,100.00
2022-12-28T08:16:26.977Z,100.00
2022-12-28T08:18:54.413Z,100.00
2022-12-28T08:21:24.505Z,100.00
2022-12-28T08:23:51.896Z,100.00
2022-12-28T08:26:20.676Z,100.00
2022-12-28T08:28:50.435Z,100.00
2022-12-28T08:31:23.040Z,100.00
2022-12-28T08:33:50.782Z,100.00
2022-12-28T08:36:17.883Z,100.00
2022-12-28T08:38:45.523Z,100.00
2022-12-28T08:41:14.974Z,100.00
2022-12-28T08:43:44.880Z,100.00
2022-12-28T08:46:20.152Z,100.00
2022-12-28T08:48:48.824Z,100.00
2022-12-28T08:51:19.084Z,100.00
2022-12-28T08:53:46.855Z,100.00
2022-12-28T08:56:19.704Z,100.00
2022-12-28T08:58:47.797Z,100.00
2022-12-28T09:01:18.531Z,100.00
2022-12-28T09:03:48.063Z,100.00
2022-12-28T09:06:17.510Z,100.00
2022-12-28T09:08:56.870Z,100.00
2022-12-28T09:11:31.448Z,100.00
2022-12-28T09:13:58.174Z,100.00
2022-12-28T09:16:27.332Z,100.00
2022-12-28T09:18:59.684Z,100.00
2022-12-28T09:21:29.607Z,100.00
2022-12-28T09:23:56.577Z,100.00
2022-12-28T09:26:28.465Z,100.00
2022-12-28T09:28:59.727Z,100.00
2022-12-28T09:31:29.765Z,100.00
2022-12-28T09:36:47.717Z,100.00
2022-12-28T09:39:19.782Z,100.00
2022-12-28T09:41:51.599Z,100.00
2022-12-28T09:44:30.411Z,100.00
2022-12-28T09:47:05.843Z,100.00
2022-12-28T09:49:44.690Z,100.00
2022-12-28T09:52:14.480Z,100.00
2022-12-28T09:54:42.156Z,100.00
2022-12-28T09:57:18.231Z,100.00
2022-12-28T09:59:47.604Z,100.00
2022-12-28T10:02:25.815Z,100.00
2022-12-28T10:04:53.013Z,100.00
2022-12-28T10:07:20.373Z,100.00
2022-12-28T10:09:48.774Z,100.00
2022-12-28T10:12:21.497Z,100.00
2022-12-28T10:14:49.478Z,100.00
2022-12-28T10:17:20.004Z,100.00
2022-12-28T10:19:47.730Z,100.00
2022-12-28T10:22:18.913Z,100.00
2022-12-28T10:24:47.323Z,100.00
2022-12-28T10:27:25.448Z,100.00
2022-12-28T10:29:53.733Z,100.00
2022-12-28T10:32:20.744Z,100.00
2022-12-28T10:35:01.972Z,100.00
2022-12-28T10:37:35.018Z,100.00
2022-12-28T10:40:06.926Z,100.00
2022-12-28T10:42:36.589Z,100.00
2022-12-28T10:45:07.127Z,100.00
2022-12-28T10:47:43.722Z,100.00
2022-12-28T10:50:41.772Z,100.00
2022-12-28T10:53:19.630Z,100.00
2022-12-28T10:55:46.651Z,100.00
2022-12-28T10:58:30.620Z,100.00
2022-12-28T11:01:14.876Z,68.92
2022-12-28T11:03:45.493Z,54.13
2022-12-28T11:06:18.677Z,51.18
2022-12-28T11:09:13.718Z,51.95
2022-12-28T11:11:42.012Z,50.76
2022-12-28T11:14:23.913Z,50.99
2022-12-28T11:16:51.010Z,48.84
2022-12-28T11:19:17.695Z,40.88
2022-12-28T11:21:44.864Z,32.75
2022-12-28T11:24:15.078Z,28.58
2022-12-28T11:26:46.014Z,26.97
2022-12-28T11:29:15.670Z,24.43
2022-12-28T11:31:57.829Z,23.33
2022-12-28T11:34:27.866Z,21.42
2022-12-28T11:36:55.396Z,20.14
2022-12-28T11:39:25.226Z,18.92
2022-12-28T11:42:38.035Z,18.04
2022-12-28T11:44:52.775Z,17.93
2022-12-28T11:47:34.012Z,17.23
2022-12-28T11:50:36.786Z,18.74
2022-12-28T11:53:25.099Z,20.89
2022-12-28T11:56:00.783Z,23.05
2022-12-28T11:58:31.161Z,23.39
2022-12-28T12:01:00.203Z,23.89
2022-12-28T12:03:59.370Z,23.96
2022-12-28T12:06:44.847Z,23.86
2022-12-28T12:09:23.936Z,25.93
2022-12-28T12:11:55.818Z,29.74
2022-12-28T12:14:28.899Z,34.33
2022-12-28T12:17:05.636Z,36.19
2022-12-28T12:19:37.249Z,38.45
2022-12-28T12:22:15.764Z,38.49
2022-12-28T12:24:55.289Z,39.49
2022-12-28T12:27:38.953Z,39.49
2022-12-28T12:30:14.479Z,37.23
2022-12-28T12:32:49.716Z,34.59
2022-12-28T12:35:26.243Z,38.28
2022-12-28T12:37:56.477Z,39.73
2022-12-28T12:40:42.083Z,41.19
2022-12-28T12:43:11.905Z,41.47
2022-12-28T12:45:57.501Z,41.52
2022-12-28T12:48:48.980Z,42.06
2022-12-28T12:51:22.247Z,42.13
2022-12-28T12:54:04.084Z,43.29
2022-12-28T12:56:53.227Z,43.39
2022-12-28T13:00:14.578Z,43.55
2022-12-28T13:02:44.019Z,43.16
2022-12-28T13:05:18.059Z,44.63
2022-12-28T13:07:45.351Z,44.10
2022-12-28T13:10:24.430Z,44.13
2022-12-28T13:12:55.042Z,44.47
2022-12-28T13:15:21.864Z,44.64
2022-12-28T13:18:42.847Z,44.37
2022-12-28T13:20:59.419Z,44.13
2022-12-28T13:23:27.960Z,44.77
2022-12-28T13:26:00.913Z,44.45
2022-12-28T13:28:31.067Z,43.90
2022-12-28T13:30:59.424Z,43.32
2022-12-28T13:33:26.280Z,43.64
2022-12-28T13:36:14.224Z,44.09
2022-12-28T13:38:41.676Z,43.64
2022-12-28T13:41:24.461Z,41.08
2022-12-28T13:44:03.471Z,42.38
2022-12-28T13:46:31.608Z,42.77
2022-12-28T13:48:59.638Z,42.94
2022-12-28T13:51:26.734Z,43.58
2022-12-28T13:53:59.404Z,42.31
2022-12-28T13:56:28.250Z,42.19
2022-12-28T13:59:17.700Z,41.43
2022-12-28T14:01:47.508Z,42.25
2022-12-28T14:07:13.168Z,42.46
2022-12-28T14:09:40.385Z,42.64
2022-12-28T14:12:08.301Z,44.16
2022-12-28T14:14:35.793Z,43.49
2022-12-28T14:17:03.385Z,42.98
2022-12-28T14:19:30.368Z,43.64
2022-12-28T14:21:57.093Z,41.60
2022-12-28T14:24:24.875Z,43.13
2022-12-28T14:26:57.855Z,43.87
2022-12-28T14:29:31.069Z,43.35
2022-12-28T14:32:00.035Z,44.31
2022-12-28T14:34:32.068Z,44.04
2022-12-28T14:37:00.540Z,44.51
2022-12-28T14:39:34.788Z,44.64
2022-12-28T14:42:04.063Z,44.45
2022-12-28T14:44:39.711Z,44.61
2022-12-28T14:47:46.704Z,45.50
2022-12-28T14:50:26.493Z,46.11
2022-12-28T14:53:13.944Z,46.48
2022-12-28T14:55:57.727Z,45.46
2022-12-28T14:58:27.980Z,45.92
2022-12-28T15:01:06.094Z,47.16
2022-12-28T15:03:57.156Z,46.98
2022-12-28T15:06:30.878Z,47.64
2022-12-28T15:08:59.944Z,47.61
2022-12-28T15:11:28.746Z,47.91
2022-12-28T15:13:57.570Z,47.90
2022-12-28T15:16:24.599Z,48.29
2022-12-28T15:18:52.991Z,48.82
2022-12-28T15:21:22.014Z,49.20
2022-12-28T15:23:53.863Z,49.82
2022-12-28T15:26:23.530Z,50.41
2022-12-28T15:28:51.057Z,51.69
2022-12-28T15:31:20.753Z,51.99
2022-12-28T15:33:47.783Z,52.16
2022-12-28T15:36:20.227Z,53.18
2022-12-28T15:38:48.085Z,53.24
2022-12-28T15:41:34.669Z,53.58
2022-12-28T15:44:01.622Z,53.57
2022-12-28T15:46:28.409Z,53.21
2022-12-28T15:48:55.287Z,54.28
2022-12-28T15:51:22.062Z,55.60
2022-12-28T15:53:48.937Z,55.89
2022-12-28T15:56:27.732Z,56.20
2022-12-28T15:58:56.895Z,57.15
2022-12-28T16:01:25.520Z,57.74
2022-12-28T16:03:53.756Z,58.19
2022-12-28T16:06:22.237Z,59.17
2022-12-28T16:08:52.434Z,59.28
2022-12-28T16:11:20.171Z,59.97
2022-12-28T16:13:54.668Z,60.60
2022-12-28T16:16:22.854Z,60.62
2022-12-28T16:18:50.691Z,61.00
2022-12-28T16:21:17.551Z,61.77
2022-12-28T16:23:45.603Z,62.13
2022-12-28T16:26:13.599Z,63.08
2022-12-28T16:28:41.787Z,63.87
2022-12-28T16:31:20.407Z,64.61
2022-12-28T16:33:47.248Z,64.99
2022-12-28T16:36:16.243Z,64.90
2022-12-28T16:38:43.030Z,66.03
2022-12-28T16:41:09.810Z,65.78
2022-12-28T16:43:36.541Z,65.48
2022-12-28T16:46:07.057Z,65.61
2022-12-28T16:48:34.567Z,66.22
2022-12-28T16:51:02.076Z,66.46
2022-12-28T16:53:29.584Z,66.74
2022-12-28T16:56:00.165Z,66.60
2022-12-28T16:58:28.027Z,66.53
2022-12-28T17:00:54.942Z,66.10
2022-12-28T17:03:21.794Z,66.42
2022-12-28T17:05:50.589Z,65.72
2022-12-28T17:08:18.096Z,65.52
2022-12-28T17:10:45.467Z,66.62
2022-12-28T17:13:12.340Z,66.32
2022-12-28T17:15:39.833Z,67.10
2022-12-28T17:18:07.288Z,67.18
2022-12-28T17:20:38.382Z,67.50
2022-12-28T17:23:06.167Z,68.47
2022-12-28T17:25:34.253Z,68.69
2022-12-28T17:28:01.357Z,69.15
2022-12-28T17:30:28.793Z,69.23
2022-12-28T17:32:55.544Z,69.85
2022-12-28T17:35:22.387Z,69.50
2022-12-28T17:37:49.173Z,68.70
2022-12-28T17:40:15.979Z,68.47
2022-12-28T17:42:43.084Z,68.94
2022-12-28T17:45:11.976Z,68.00
2022-12-28T17:47:39.176Z,69.26
2022-12-28T17:50:06.743Z,69.59
2022-12-28T17:52:33.526Z,70.87
2022-12-28T17:55:00.266Z,71.44
2022-12-28T17:57:27.481Z,72.26
2022-12-28T17:59:54.213Z,72.63
2022-12-28T18:02:21.303Z,74.24
2022-12-28T18:04:48.307Z,76.12
2022-12-28T18:07:15.069Z,76.91
2022-12-28T18:09:41.912Z,78.12
2022-12-28T18:12:08.704Z,79.08
2022-12-28T18:14:35.554Z,79.26
2022-12-28T18:17:02.402Z,79.91
2022-12-28T18:19:29.369Z,80.59
2022-12-28T18:21:56.129Z,80.62
2022-12-28T18:24:23.007Z,80.11
2022-12-28T18:26:50.023Z,77.87
2022-12-28T18:29:16.741Z,78.71
2022-12-28T18:31:43.550Z,79.24
2022-12-28T18:34:10.341Z,79.78
2022-12-28T18:36:37.116Z,79.22
2022-12-28T18:39:03.961Z,78.12
2022-12-28T18:41:34.280Z,76.84
2022-12-28T18:44:02.980Z,74.97
2022-12-28T18:46:30.207Z,75.17
2022-12-28T18:48:57.131Z,75.44
2022-12-28T18:51:23.929Z,76.70
2022-12-28T18:53:51.025Z,79.06
2022-12-28T18:56:21.633Z,79.87
2022-12-28T18:58:56.537Z,81.83
2022-12-28T19:02:04.379Z,82.34
2022-12-28T19:04:13.051Z,81.80
2022-12-28T19:06:40.513Z,80.63
2022-12-28T19:09:09.070Z,81.04
2022-12-28T19:11:37.177Z,79.43
2022-12-28T19:14:05.891Z,79.87
2022-12-28T19:16:32.842Z,81.00
2022-12-28T19:19:00.801Z,81.41
2022-12-28T19:21:36.670Z,80.50
2022-12-28T19:24:06.993Z,82.01
2022-12-28T19:26:35.409Z,82.56
2022-12-28T19:29:03.586Z,82.45
2022-12-28T19:31:31.144Z,86.00
2022-12-28T19:33:58.033Z,90.06
2022-12-28T19:36:25.187Z,91.26
2022-12-28T19:38:55.817Z,92.66
2022-12-28T19:41:23.355Z,89.97
2022-12-28T19:43:50.669Z,90.45
2022-12-28T19:46:31.260Z,89.38
2022-12-28T19:48:59.837Z,86.76
2022-12-28T19:51:30.652Z,88.86
2022-12-28T19:53:58.666Z,92.18
2022-12-28T19:56:25.585Z,90.12
2022-12-28T19:58:53.787Z,92.14
2022-12-28T20:01:25.998Z,96.02
2022-12-28T20:03:54.234Z,96.77
2022-12-28T20:06:29.609Z,100.00
2022-12-28T20:08:59.608Z,100.00
2022-12-28T20:11:27.567Z,100.00
2022-12-28T20:13:57.570Z,100.00
2022-12-28T20:16:25.414Z,100.00
2022-12-28T20:18:53.761Z,100.00
2022-12-28T20:21:22.329Z,100.00
2022-12-28T20:23:53.854Z,100.00
2022-12-28T20:26:24.683Z,100.00
2022-12-28T20:28:51.736Z,100.00
2022-12-28T20:31:18.962Z,100.00
2022-12-28T20:33:46.169Z,100.00
2022-12-28T20:36:15.424Z,100.00
2022-12-28T20:38:42.723Z,100.00
2022-12-28T20:41:35.955Z,100.00
2022-12-28T20:44:11.560Z,100.00
2022-12-28T20:46:39.054Z,100.00
2022-12-28T20:49:06.283Z,100.00
2022-12-28T20:51:33.928Z,100.00
2022-12-28T20:54:01.569Z,100.00
2022-12-28T20:56:28.456Z,100.00
2022-12-28T20:58:55.242Z,100.00
2022-12-28T21:01:22.070Z,100.00
2022-12-28T21:03:49.503Z,100.00
2022-12-28T21:06:16.257Z,100.00
2022-12-28T21:08:42.991Z,100.00
2022-12-28T21:11:09.894Z,100.00
2022-12-28T21:13:42.250Z,100.00
2022-12-28T21:16:12.189Z,100.00
2022-12-28T21:18:38.998Z,100.00
2022-12-28T21:21:06.148Z,100.00
2022-12-28T21:23:33.283Z,100.00
2022-12-28T21:26:04.501Z,100.00
2022-12-28T21:28:31.961Z,100.00
2022-12-28T21:30:59.993Z,100.00
2022-12-28T21:33:26.680Z,100.00
2022-12-28T21:36:10.667Z,100.00
2022-12-28T21:38:39.280Z,100.00
2022-12-28T21:41:14.726Z,100.00
2022-12-28T21:43:41.956Z,100.00
2022-12-28T21:46:13.921Z,100.00
2022-12-28T21:48:41.531Z,100.00
2022-12-28T21:51:29.851Z,100.00
2022-12-28T21:54:17.716Z,100.00
2022-12-28T21:56:47.017Z,100.00
2022-12-28T21:59:13.886Z,100.00
2022-12-28T22:02:01.223Z,100.00
2022-12-28T22:04:47.324Z,100.00
2022-12-28T22:07:16.833Z,100.00
2022-12-28T22:10:02.194Z,100.00
2022-12-28T22:12:34.863Z,100.00
2022-12-28T22:15:23.689Z,100.00
2022-12-28T22:18:03.138Z,100.00
2022-12-28T22:20:31.416Z,100.00
2022-12-28T22:22:59.743Z,100.00
2022-12-28T22:25:28.941Z,100.00
2022-12-28T22:27:56.617Z,100.00
2022-12-28T22:30:23.570Z,100.00
2022-12-28T22:32:50.339Z,100.00
2022-12-28T22:35:17.300Z,100.00
2022-12-28T22:37:44.151Z,100.00
2022-12-28T22:40:12.151Z,100.00
2022-12-28T22:42:47.441Z,100.00
2022-12-28T22:45:20.389Z,100.00
2022-12-28T22:47:47.633Z,100.00
2022-12-28T22:50:18.056Z,100.00
2022-12-28T22:52:45.172Z,100.00
2022-12-28T22:55:12.254Z,100.00
2022-12-28T22:57:39.024Z,100.00
2022-12-28T23:00:09.571Z,100.00
2022-12-28T23:02:36.509Z,100.00
2022-12-28T23:05:04.208Z,100.00
2022-12-28T23:07:31.672Z,100.00
2022-12-28T23:09:58.397Z,100.00
2022-12-28T23:12:25.152Z,100.00
2022-12-28T23:15:10.581Z,100.00
2022-12-28T23:17:37.668Z,100.00
2022-12-28T23:20:23.594Z,100.00
2022-12-28T23:23:02.321Z,100.00
2022-12-28T23:25:47.590Z,100.00
2022-12-28T23:28:16.121Z,100.00
2022-12-28T23:30:46.943Z,100.00
2022-12-28T23:33:14.738Z,100.00
2022-12-28T23:35:41.569Z,100.00
2022-12-28T23:38:08.410Z,100.00
2022-12-28T23:40:38.798Z,100.00
2022-12-28T23:43:05.642Z,100.00
2022-12-28T23:45:32.486Z,100.00
2022-12-28T23:47:59.366Z,100.00
2022-12-28T23:50:26.176Z,100.00
2022-12-28T23:52:52.965Z,100.00
2022-12-28T23:55:19.692Z,100.00
2022-12-28T23:57:46.412Z,100.00
